sensor_id;sensor_type;location;lat;lon;timestamp;pressure;altitude;pressure_sealevel;temperature;humidity
43480;BME280;29067;35.492;-97.520;2023-07-22T00:01:51;97351.02;;;25.89;47.76
43480;BME280;29067;35.492;-97.520;2023-07-22T00:04:20;97352.96;;;25.36;49.40
43480;BME280;29067;35.492;-97.520;2023-07-22T00:06:48;97351.92;;;25.25;49.47
43480;BME280;29067;35.492;-97.520;2023-07-22T00:09:16;97350.80;;;25.55;49.28
43480;BME280;29067;35.492;-97.520;2023-07-22T00:11:45;97354.85;;;25.38;49.34
43480;BME280;29067;35.492;-97.520;2023-07-22T00:14:13;97351.32;;;26.26;49.20
43480;BME280;29067;35.492;-97.520;2023-07-22T00:16:41;97353.53;;;27.26;47.28
43480;BME280;29067;35.492;-97.520;2023-07-22T00:19:09;97357.27;;;25.09;49.25
43480;BME280;29067;35.492;-97.520;2023-07-22T00:21:38;97359.44;;;24.96;50.10
43480;BME280;29067;35.492;-97.520;2023-07-22T00:24:05;97360.23;;;24.45;51.50
43480;BME280;29067;35.492;-97.520;2023-07-22T00:26:34;97359.41;;;24.04;52.08
43480;BME280;29067;35.492;-97.520;2023-07-22T00:29:02;97353.05;;;25.42;50.29
43480;BME280;29067;35.492;-97.520;2023-07-22T00:31:30;97357.18;;;24.95;50.76
43480;BME280;29067;35.492;-97.520;2023-07-22T00:33:59;97355.18;;;25.72;49.25
43480;BME280;29067;35.492;-97.520;2023-07-22T00:36:27;97359.14;;;24.56;51.15
43480;BME280;29067;35.492;-97.520;2023-07-22T00:38:54;97361.36;;;24.93;51.11
43480;BME280;29067;35.492;-97.520;2023-07-22T00:41:22;97360.37;;;24.18;51.91
43480;BME280;29067;35.492;-97.520;2023-07-22T00:43:50;97359.67;;;24.56;51.31
43480;BME280;29067;35.492;-97.520;2023-07-22T00:46:18;97360.58;;;25.82;50.42
43480;BME280;29067;35.492;-97.520;2023-07-22T00:48:47;97364.43;;;24.23;51.09
43480;BME280;29067;35.492;-97.520;2023-07-22T00:51:17;97364.04;;;24.86;50.25
43480;BME280;29067;35.492;-97.520;2023-07-22T00:53:44;97370.60;;;25.02;49.61
43480;BME280;29067;35.492;-97.520;2023-07-22T00:56:12;97373.15;;;24.58;49.31
43480;BME280;29067;35.492;-97.520;2023-07-22T00:58:40;97373.39;;;24.32;49.45
43480;BME280;29067;35.492;-97.520;2023-07-22T01:01:09;97378.15;;;24.88;48.65
43480;BME280;29067;35.492;-97.520;2023-07-22T01:03:37;97383.11;;;24.37;49.30
43480;BME280;29067;35.492;-97.520;2023-07-22T01:06:05;97384.26;;;24.91;48.76
43480;BME280;29067;35.492;-97.520;2023-07-22T01:08:34;97381.84;;;25.91;47.21
43480;BME280;29067;35.492;-97.520;2023-07-22T01:11:02;97382.59;;;24.91;48.00
43480;BME280;29067;35.492;-97.520;2023-07-22T01:13:31;97386.10;;;25.19;48.25
43480;BME280;29067;35.492;-97.520;2023-07-22T01:15:59;97385.72;;;23.68;49.30
43480;BME280;29067;35.492;-97.520;2023-07-22T01:18:27;97392.23;;;24.60;49.02
43480;BME280;29067;35.492;-97.520;2023-07-22T01:20:56;97394.01;;;25.51;48.02
43480;BME280;29067;35.492;-97.520;2023-07-22T01:23:24;97395.04;;;25.94;47.44
43480;BME280;29067;35.492;-97.520;2023-07-22T01:25:52;97398.08;;;24.92;47.93
43480;BME280;29067;35.492;-97.520;2023-07-22T01:28:21;97399.84;;;24.16;49.00
43480;BME280;29067;35.492;-97.520;2023-07-22T01:30:49;97395.94;;;25.80;47.06
43480;BME280;29067;35.492;-97.520;2023-07-22T01:33:17;97395.87;;;24.31;48.60
43480;BME280;29067;35.492;-97.520;2023-07-22T01:35:45;97399.74;;;25.52;47.10
43480;BME280;29067;35.492;-97.520;2023-07-22T01:38:13;97403.09;;;23.85;48.85
43480;BME280;29067;35.492;-97.520;2023-07-22T01:40:42;97401.86;;;24.63;48.17
43480;BME280;29067;35.492;-97.520;2023-07-22T01:43:10;97403.35;;;24.75;48.48
43480;BME280;29067;35.492;-97.520;2023-07-22T01:45:37;97402.49;;;23.94;49.07
43480;BME280;29067;35.492;-97.520;2023-07-22T01:48:06;97400.01;;;25.23;47.53
43480;BME280;29067;35.492;-97.520;2023-07-22T01:50:34;97397.78;;;24.82;48.17
43480;BME280;29067;35.492;-97.520;2023-07-22T01:53:02;97399.78;;;25.48;46.95
43480;BME280;29067;35.492;-97.520;2023-07-22T01:55:31;97406.29;;;24.89;48.12
43480;BME280;29067;35.492;-97.520;2023-07-22T01:58:00;97407.05;;;24.04;49.83
43480;BME280;29067;35.492;-97.520;2023-07-22T02:00:28;97408.58;;;25.56;48.17
43480;BME280;29067;35.492;-97.520;2023-07-22T02:02:57;97408.63;;;25.32;47.85
43480;BME280;29067;35.492;-97.520;2023-07-22T02:05:25;97410.83;;;25.05;48.27
43480;BME280;29067;35.492;-97.520;2023-07-22T02:07:53;97411.93;;;24.67;49.51
43480;BME280;29067;35.492;-97.520;2023-07-22T02:10:21;97414.33;;;25.50;48.64
43480;BME280;29067;35.492;-97.520;2023-07-22T02:12:50;97418.22;;;25.58;48.93
43480;BME280;29067;35.492;-97.520;2023-07-22T02:15:18;97413.28;;;25.76;48.35
43480;BME280;29067;35.492;-97.520;2023-07-22T02:17:47;97414.58;;;26.20;47.95
43480;BME280;29067;35.492;-97.520;2023-07-22T02:20:14;97417.24;;;25.19;48.55
43480;BME280;29067;35.492;-97.520;2023-07-22T02:22:43;97420.08;;;25.68;48.34
43480;BME280;29067;35.492;-97.520;2023-07-22T02:25:11;97414.01;;;25.88;47.54
43480;BME280;29067;35.492;-97.520;2023-07-22T02:27:39;97415.43;;;25.32;47.76
43480;BME280;29067;35.492;-97.520;2023-07-22T02:30:09;97413.25;;;25.43;48.18
43480;BME280;29067;35.492;-97.520;2023-07-22T02:32:37;97415.81;;;25.00;49.22
43480;BME280;29067;35.492;-97.520;2023-07-22T02:35:05;97415.21;;;25.46;47.62
43480;BME280;29067;35.492;-97.520;2023-07-22T02:37:34;97413.84;;;26.39;47.42
43480;BME280;29067;35.492;-97.520;2023-07-22T02:40:03;97417.31;;;25.85;47.59
43480;BME280;29067;35.492;-97.520;2023-07-22T02:42:31;97417.98;;;26.04;47.20
43480;BME280;29067;35.492;-97.520;2023-07-22T02:44:59;97420.47;;;26.42;46.74
43480;BME280;29067;35.492;-97.520;2023-07-22T02:47:27;97423.55;;;26.12;47.11
43480;BME280;29067;35.492;-97.520;2023-07-22T02:49:56;97419.72;;;26.87;46.11
43480;BME280;29067;35.492;-97.520;2023-07-22T02:52:24;97424.57;;;27.23;45.44
43480;BME280;29067;35.492;-97.520;2023-07-22T02:55:10;97430.10;;;26.99;46.03
43480;BME280;29067;35.492;-97.520;2023-07-22T02:57:40;97430.66;;;26.18;46.85
43480;BME280;29067;35.492;-97.520;2023-07-22T03:00:10;97429.99;;;27.73;45.48
43480;BME280;29067;35.492;-97.520;2023-07-22T03:02:39;97432.06;;;27.09;45.62
43480;BME280;29067;35.492;-97.520;2023-07-22T03:05:08;97436.45;;;26.83;45.26
43480;BME280;29067;35.492;-97.520;2023-07-22T03:07:37;97442.42;;;27.81;44.78
43480;BME280;29067;35.492;-97.520;2023-07-22T03:10:06;97442.72;;;28.41;44.94
43480;BME280;29067;35.492;-97.520;2023-07-22T03:12:35;97445.18;;;26.00;47.11
43480;BME280;29067;35.492;-97.520;2023-07-22T03:15:05;97445.14;;;27.18;45.62
43480;BME280;29067;35.492;-97.520;2023-07-22T03:17:33;97443.49;;;27.11;45.47
43480;BME280;29067;35.492;-97.520;2023-07-22T03:20:01;97446.43;;;26.62;45.95
43480;BME280;29067;35.492;-97.520;2023-07-22T03:22:29;97450.82;;;26.71;46.33
43480;BME280;29067;35.492;-97.520;2023-07-22T03:24:58;97448.97;;;27.05;45.52
43480;BME280;29067;35.492;-97.520;2023-07-22T03:27:26;97450.31;;;27.04;45.48
43480;BME280;29067;35.492;-97.520;2023-07-22T03:29:54;97453.89;;;27.14;44.68
43480;BME280;29067;35.492;-97.520;2023-07-22T03:32:23;97455.92;;;26.96;45.76
43480;BME280;29067;35.492;-97.520;2023-07-22T03:34:51;97461.69;;;27.29;45.03
43480;BME280;29067;35.492;-97.520;2023-07-22T03:37:20;97459.79;;;26.29;45.81
43480;BME280;29067;35.492;-97.520;2023-07-22T03:39:48;97457.63;;;26.46;45.77
43480;BME280;29067;35.492;-97.520;2023-07-22T03:42:16;97455.97;;;26.61;45.56
43480;BME280;29067;35.492;-97.520;2023-07-22T03:44:44;97458.03;;;25.98;46.37
43480;BME280;29067;35.492;-97.520;2023-07-22T03:47:13;97455.14;;;26.23;45.59
43480;BME280;29067;35.492;-97.520;2023-07-22T03:49:41;97462.00;;;26.42;46.30
43480;BME280;29067;35.492;-97.520;2023-07-22T03:52:09;97465.31;;;25.65;46.91
43480;BME280;29067;35.492;-97.520;2023-07-22T03:54:37;97469.01;;;27.04;45.88
43480;BME280;29067;35.492;-97.520;2023-07-22T03:57:06;97469.59;;;27.02;45.36
43480;BME280;29067;35.492;-97.520;2023-07-22T03:59:34;97477.07;;;24.94;47.64
43480;BME280;29067;35.492;-97.520;2023-07-22T04:02:03;97474.60;;;26.97;45.93
43480;BME280;29067;35.492;-97.520;2023-07-22T04:04:31;97471.26;;;26.44;46.16
43480;BME280;29067;35.492;-97.520;2023-07-22T04:07:00;97470.84;;;25.89;46.29
43480;BME280;29067;35.492;-97.520;2023-07-22T04:09:28;97470.08;;;24.88;45.30
43480;BME280;29067;35.492;-97.520;2023-07-22T04:11:56;97465.67;;;24.82;48.85
43480;BME280;29067;35.492;-97.520;2023-07-22T04:14:25;97465.45;;;24.38;49.57
43480;BME280;29067;35.492;-97.520;2023-07-22T04:16:53;97466.66;;;24.66;49.26
43480;BME280;29067;35.492;-97.520;2023-07-22T04:19:21;97467.48;;;24.86;49.00
43480;BME280;29067;35.492;-97.520;2023-07-22T04:21:49;97475.97;;;23.45;51.12
43480;BME280;29067;35.492;-97.520;2023-07-22T04:24:17;97474.87;;;24.32;51.10
43480;BME280;29067;35.492;-97.520;2023-07-22T04:26:45;97474.67;;;24.07;50.74
43480;BME280;29067;35.492;-97.520;2023-07-22T04:29:14;97479.12;;;23.72;51.02
43480;BME280;29067;35.492;-97.520;2023-07-22T04:31:42;97480.51;;;24.47;49.99
43480;BME280;29067;35.492;-97.520;2023-07-22T04:34:10;97480.88;;;24.41;50.69
43480;BME280;29067;35.492;-97.520;2023-07-22T04:36:38;97478.39;;;23.60;51.09
43480;BME280;29067;35.492;-97.520;2023-07-22T04:39:06;97480.92;;;23.79;50.31
43480;BME280;29067;35.492;-97.520;2023-07-22T04:41:35;97476.09;;;24.42;50.10
43480;BME280;29067;35.492;-97.520;2023-07-22T04:44:03;97468.79;;;25.08;49.13
43480;BME280;29067;35.492;-97.520;2023-07-22T04:46:32;97475.61;;;23.44;51.43
43480;BME280;29067;35.492;-97.520;2023-07-22T04:49:00;97474.85;;;23.34;51.47
43480;BME280;29067;35.492;-97.520;2023-07-22T04:51:28;97475.25;;;22.95;51.33
43480;BME280;29067;35.492;-97.520;2023-07-22T04:53:57;97470.06;;;24.25;49.99
43480;BME280;29067;35.492;-97.520;2023-07-22T04:56:25;97467.93;;;24.36;49.45
43480;BME280;29067;35.492;-97.520;2023-07-22T04:58:53;97466.53;;;24.73;49.26
43480;BME280;29067;35.492;-97.520;2023-07-22T05:01:22;97467.96;;;25.34;48.52
43480;BME280;29067;35.492;-97.520;2023-07-22T05:03:51;97468.17;;;25.11;48.80
43480;BME280;29067;35.492;-97.520;2023-07-22T05:06:19;97470.65;;;24.85;48.80
43480;BME280;29067;35.492;-97.520;2023-07-22T05:08:46;97473.78;;;25.82;47.87
43480;BME280;29067;35.492;-97.520;2023-07-22T05:11:14;97479.15;;;24.14;49.24
43480;BME280;29067;35.492;-97.520;2023-07-22T05:13:43;97476.73;;;24.24;50.05
43480;BME280;29067;35.492;-97.520;2023-07-22T05:16:10;97476.62;;;25.39;48.55
43480;BME280;29067;35.492;-97.520;2023-07-22T05:18:38;97480.20;;;25.37;48.51
43480;BME280;29067;35.492;-97.520;2023-07-22T05:21:05;97481.13;;;24.29;49.41
43480;BME280;29067;35.492;-97.520;2023-07-22T05:23:33;97482.34;;;25.66;47.43
43480;BME280;29067;35.492;-97.520;2023-07-22T05:26:01;97483.64;;;25.49;48.03
43480;BME280;29067;35.492;-97.520;2023-07-22T05:28:30;97487.28;;;25.57;47.71
43480;BME280;29067;35.492;-97.520;2023-07-22T05:30:58;97492.12;;;24.96;48.65
43480;BME280;29067;35.492;-97.520;2023-07-22T05:33:26;97492.95;;;25.85;46.67
43480;BME280;29067;35.492;-97.520;2023-07-22T05:35:55;97491.79;;;25.38;46.93
43480;BME280;29067;35.492;-97.520;2023-07-22T05:38:23;97489.62;;;25.31;47.40
43480;BME280;29067;35.492;-97.520;2023-07-22T05:40:52;97489.45;;;25.30;47.39
43480;BME280;29067;35.492;-97.520;2023-07-22T05:43:20;97494.26;;;24.49;48.47
43480;BME280;29067;35.492;-97.520;2023-07-22T05:45:49;97492.43;;;25.64;47.46
43480;BME280;29067;35.492;-97.520;2023-07-22T05:48:17;97492.34;;;24.82;48.31
43480;BME280;29067;35.492;-97.520;2023-07-22T05:50:44;97490.03;;;25.33;47.32
43480;BME280;29067;35.492;-97.520;2023-07-22T05:53:12;97490.64;;;24.77;47.86
43480;BME280;29067;35.492;-97.520;2023-07-22T05:55:40;97491.29;;;25.12;47.29
43480;BME280;29067;35.492;-97.520;2023-07-22T05:58:16;97492.72;;;25.37;47.04
43480;BME280;29067;35.492;-97.520;2023-07-22T06:00:44;97490.38;;;26.01;46.25
43480;BME280;29067;35.492;-97.520;2023-07-22T06:03:12;97491.70;;;24.78;47.61
43480;BME280;29067;35.492;-97.520;2023-07-22T06:05:41;97492.34;;;25.16;46.93
43480;BME280;29067;35.492;-97.520;2023-07-22T06:08:09;97487.80;;;25.32;47.06
43480;BME280;29067;35.492;-97.520;2023-07-22T06:10:37;97483.07;;;25.88;45.89
43480;BME280;29067;35.492;-97.520;2023-07-22T06:13:05;97481.71;;;24.20;47.66
43480;BME280;29067;35.492;-97.520;2023-07-22T06:15:34;97479.78;;;25.32;46.87
43480;BME280;29067;35.492;-97.520;2023-07-22T06:18:02;97482.86;;;22.26;49.03
43480;BME280;29067;35.492;-97.520;2023-07-22T06:20:30;97482.33;;;24.41;48.95
43480;BME280;29067;35.492;-97.520;2023-07-22T06:22:58;97473.63;;;24.49;47.52
43480;BME280;29067;35.492;-97.520;2023-07-22T06:25:26;97469.53;;;24.59;47.96
43480;BME280;29067;35.492;-97.520;2023-07-22T06:27:54;97461.61;;;25.11;47.04
43480;BME280;29067;35.492;-97.520;2023-07-22T06:30:21;97470.70;;;23.79;47.97
43480;BME280;29067;35.492;-97.520;2023-07-22T06:32:49;97476.20;;;24.17;48.31
43480;BME280;29067;35.492;-97.520;2023-07-22T06:35:18;97476.57;;;23.19;48.70
43480;BME280;29067;35.492;-97.520;2023-07-22T06:37:46;97478.47;;;22.84;49.33
43480;BME280;29067;35.492;-97.520;2023-07-22T06:40:13;97479.90;;;24.02;48.76
43480;BME280;29067;35.492;-97.520;2023-07-22T06:42:42;97477.79;;;23.57;48.80
43480;BME280;29067;35.492;-97.520;2023-07-22T06:45:10;97474.16;;;24.05;48.55
43480;BME280;29067;35.492;-97.520;2023-07-22T06:47:38;97467.89;;;24.03;48.28
43480;BME280;29067;35.492;-97.520;2023-07-22T06:50:07;97469.80;;;23.19;49.03
43480;BME280;29067;35.492;-97.520;2023-07-22T06:52:35;97471.97;;;22.81;49.69
43480;BME280;29067;35.492;-97.520;2023-07-22T06:55:03;97472.70;;;22.81;49.90
43480;BME280;29067;35.492;-97.520;2023-07-22T06:57:32;97469.88;;;21.98;52.33
43480;BME280;29067;35.492;-97.520;2023-07-22T07:00:00;97471.72;;;22.56;51.64
43480;BME280;29067;35.492;-97.520;2023-07-22T07:02:28;97471.24;;;23.40;50.32
43480;BME280;29067;35.492;-97.520;2023-07-22T07:04:57;97461.93;;;23.42;49.42
43480;BME280;29067;35.492;-97.520;2023-07-22T07:07:26;97457.49;;;23.35;49.38
43480;BME280;29067;35.492;-97.520;2023-07-22T07:09:54;97461.45;;;22.61;51.24
43480;BME280;29067;35.492;-97.520;2023-07-22T07:12:21;97459.57;;;22.42;51.00
43480;BME280;29067;35.492;-97.520;2023-07-22T07:14:50;97456.86;;;23.58;50.07
43480;BME280;29067;35.492;-97.520;2023-07-22T07:17:18;97454.69;;;24.09;49.26
43480;BME280;29067;35.492;-97.520;2023-07-22T07:19:47;97456.32;;;23.47;49.37
43480;BME280;29067;35.492;-97.520;2023-07-22T07:22:15;97451.84;;;23.45;49.02
43480;BME280;29067;35.492;-97.520;2023-07-22T07:24:43;97452.68;;;21.76;50.69
43480;BME280;29067;35.492;-97.520;2023-07-22T07:27:11;97457.79;;;22.27;49.99
43480;BME280;29067;35.492;-97.520;2023-07-22T07:29:38;97456.33;;;23.12;49.13
43480;BME280;29067;35.492;-97.520;2023-07-22T07:32:06;97455.11;;;23.97;48.66
43480;BME280;29067;35.492;-97.520;2023-07-22T07:34:39;97456.72;;;23.40;49.17
43480;BME280;29067;35.492;-97.520;2023-07-22T07:37:07;97460.20;;;23.58;48.49
43480;BME280;29067;35.492;-97.520;2023-07-22T07:39:35;97461.69;;;23.15;49.14
43480;BME280;29067;35.492;-97.520;2023-07-22T07:42:03;97462.31;;;24.04;48.66
43480;BME280;29067;35.492;-97.520;2023-07-22T07:44:31;97468.02;;;22.60;49.10
43480;BME280;29067;35.492;-97.520;2023-07-22T07:47:00;97472.95;;;23.02;49.28
43480;BME280;29067;35.492;-97.520;2023-07-22T07:49:27;97476.01;;;23.50;48.90
43480;BME280;29067;35.492;-97.520;2023-07-22T07:51:56;97477.16;;;22.74;49.83
43480;BME280;29067;35.492;-97.520;2023-07-22T07:54:23;97475.71;;;23.61;48.75
43480;BME280;29067;35.492;-97.520;2023-07-22T07:56:51;97475.49;;;23.91;48.38
43480;BME280;29067;35.492;-97.520;2023-07-22T07:59:18;97476.67;;;22.61;50.19
43480;BME280;29067;35.492;-97.520;2023-07-22T08:01:46;97478.62;;;23.57;49.86
43480;BME280;29067;35.492;-97.520;2023-07-22T08:04:13;97479.08;;;22.88;49.98
43480;BME280;29067;35.492;-97.520;2023-07-22T08:06:41;97478.06;;;22.58;50.02
43480;BME280;29067;35.492;-97.520;2023-07-22T08:09:09;97479.46;;;23.36;49.45
43480;BME280;29067;35.492;-97.520;2023-07-22T08:11:38;97480.15;;;23.84;48.88
43480;BME280;29067;35.492;-97.520;2023-07-22T08:14:06;97480.26;;;23.94;48.97
43480;BME280;29067;35.492;-97.520;2023-07-22T08:16:34;97481.95;;;24.13;48.76
43480;BME280;29067;35.492;-97.520;2023-07-22T08:19:01;97484.36;;;23.43;49.06
43480;BME280;29067;35.492;-97.520;2023-07-22T08:21:29;97481.42;;;24.79;47.75
43480;BME280;29067;35.492;-97.520;2023-07-22T08:23:57;97485.53;;;24.45;47.57
43480;BME280;29067;35.492;-97.520;2023-07-22T08:26:26;97487.29;;;25.00;47.31
43480;BME280;29067;35.492;-97.520;2023-07-22T08:28:53;97492.59;;;23.53;49.15
43480;BME280;29067;35.492;-97.520;2023-07-22T08:31:21;97489.48;;;24.21;48.20
43480;BME280;29067;35.492;-97.520;2023-07-22T08:33:48;97483.12;;;24.34;48.47
43480;BME280;29067;35.492;-97.520;2023-07-22T08:36:16;97479.32;;;24.62;48.11
43480;BME280;29067;35.492;-97.520;2023-07-22T08:38:44;97477.84;;;23.56;49.75
43480;BME280;29067;35.492;-97.520;2023-07-22T08:41:14;97483.66;;;23.62;49.93
43480;BME280;29067;35.492;-97.520;2023-07-22T08:43:44;97480.83;;;23.78;49.80
43480;BME280;29067;35.492;-97.520;2023-07-22T08:46:13;97475.82;;;23.95;49.23
43480;BME280;29067;35.492;-97.520;2023-07-22T08:48:47;97478.85;;;22.89;50.86
43480;BME280;29067;35.492;-97.520;2023-07-22T08:51:17;97479.17;;;23.23;50.12
43480;BME280;29067;35.492;-97.520;2023-07-22T08:53:46;97484.49;;;23.74;49.56
43480;BME280;29067;35.492;-97.520;2023-07-22T08:56:15;97482.41;;;23.96;50.21
43480;BME280;29067;35.492;-97.520;2023-07-22T08:58:44;97482.20;;;21.43;53.31
43480;BME280;29067;35.492;-97.520;2023-07-22T09:01:13;97482.38;;;22.13;52.29
43480;BME280;29067;35.492;-97.520;2023-07-22T09:03:42;97484.85;;;23.50;51.11
43480;BME280;29067;35.492;-97.520;2023-07-22T09:06:11;97483.99;;;22.60;51.69
43480;BME280;29067;35.492;-97.520;2023-07-22T09:08:39;97483.22;;;22.48;52.02
43480;BME280;29067;35.492;-97.520;2023-07-22T09:11:07;97484.84;;;22.77;51.40
43480;BME280;29067;35.492;-97.520;2023-07-22T09:13:36;97486.77;;;23.07;51.63
43480;BME280;29067;35.492;-97.520;2023-07-22T09:16:05;97487.08;;;22.63;51.64
43480;BME280;29067;35.492;-97.520;2023-07-22T09:18:34;97484.41;;;24.23;49.98
43480;BME280;29067;35.492;-97.520;2023-07-22T09:21:07;97490.09;;;22.30;52.40
43480;BME280;29067;35.492;-97.520;2023-07-22T09:23:36;97489.22;;;21.67;54.94
43480;BME280;29067;35.492;-97.520;2023-07-22T09:26:13;97484.19;;;22.13;53.83
43480;BME280;29067;35.492;-97.520;2023-07-22T09:28:49;97477.52;;;22.75;53.34
43480;BME280;29067;35.492;-97.520;2023-07-22T09:31:18;97478.86;;;23.33;52.57
43480;BME280;29067;35.492;-97.520;2023-07-22T09:33:46;97485.60;;;23.25;52.13
43480;BME280;29067;35.492;-97.520;2023-07-22T09:36:13;97489.09;;;23.22;52.44
43480;BME280;29067;35.492;-97.520;2023-07-22T09:38:41;97486.29;;;22.62;52.45
43480;BME280;29067;35.492;-97.520;2023-07-22T09:41:09;97484.32;;;23.48;52.05
43480;BME280;29067;35.492;-97.520;2023-07-22T09:43:38;97484.56;;;22.73;53.19
43480;BME280;29067;35.492;-97.520;2023-07-22T09:46:08;97487.81;;;23.13;52.43
43480;BME280;29067;35.492;-97.520;2023-07-22T09:48:44;97490.27;;;23.68;51.46
43480;BME280;29067;35.492;-97.520;2023-07-22T09:51:14;97491.85;;;23.37;51.99
43480;BME280;29067;35.492;-97.520;2023-07-22T09:53:46;97492.63;;;23.92;51.34
43480;BME280;29067;35.492;-97.520;2023-07-22T09:56:15;97494.76;;;22.51;51.88
43480;BME280;29067;35.492;-97.520;2023-07-22T09:58:43;97495.45;;;23.17;52.20
43480;BME280;29067;35.492;-97.520;2023-07-22T10:01:15;97494.05;;;23.50;51.66
43480;BME280;29067;35.492;-97.520;2023-07-22T10:03:46;97496.31;;;22.86;52.61
43480;BME280;29067;35.492;-97.520;2023-07-22T10:06:16;97500.89;;;23.50;52.29
43480;BME280;29067;35.492;-97.520;2023-07-22T10:08:44;97501.92;;;22.43;53.85
43480;BME280;29067;35.492;-97.520;2023-07-22T10:11:13;97496.48;;;21.67;55.37
43480;BME280;29067;35.492;-97.520;2023-07-22T10:13:42;97494.05;;;22.95;53.16
43480;BME280;29067;35.492;-97.520;2023-07-22T10:16:11;97492.70;;;22.45;53.94
43480;BME280;29067;35.492;-97.520;2023-07-22T10:18:39;97495.75;;;22.87;52.94
43480;BME280;29067;35.492;-97.520;2023-07-22T10:21:08;97503.00;;;21.46;55.23
43480;BME280;29067;35.492;-97.520;2023-07-22T10:23:37;97500.22;;;21.96;54.45
43480;BME280;29067;35.492;-97.520;2023-07-22T10:26:06;97503.03;;;22.48;53.89
43480;BME280;29067;35.492;-97.520;2023-07-22T10:28:34;97509.22;;;22.10;55.27
43480;BME280;29067;35.492;-97.520;2023-07-22T10:31:03;97513.81;;;21.51;55.28
43480;BME280;29067;35.492;-97.520;2023-07-22T10:33:31;97519.50;;;22.29;53.70
43480;BME280;29067;35.492;-97.520;2023-07-22T10:36:07;97521.04;;;23.24;52.73
43480;BME280;29067;35.492;-97.520;2023-07-22T10:38:35;97518.95;;;22.72;53.29
43480;BME280;29067;35.492;-97.520;2023-07-22T10:41:12;97515.06;;;22.40;53.26
43480;BME280;29067;35.492;-97.520;2023-07-22T10:43:41;97513.55;;;22.48;53.51
43480;BME280;29067;35.492;-97.520;2023-07-22T10:46:11;97522.34;;;22.45;53.83
43480;BME280;29067;35.492;-97.520;2023-07-22T10:48:41;97525.45;;;22.09;54.45
43480;BME280;29067;35.492;-97.520;2023-07-22T10:51:11;97529.84;;;21.68;54.49
43480;BME280;29067;35.492;-97.520;2023-07-22T10:53:42;97535.06;;;21.52;54.99
43480;BME280;29067;35.492;-97.520;2023-07-22T10:56:15;97536.77;;;21.60;54.61
43480;BME280;29067;35.492;-97.520;2023-07-22T10:59:00;97531.78;;;21.64;54.56
43480;BME280;29067;35.492;-97.520;2023-07-22T11:03:10;97531.47;;;21.82;54.47
43480;BME280;29067;35.492;-97.520;2023-07-22T11:05:54;97530.62;;;21.32;54.73
43480;BME280;29067;35.492;-97.520;2023-07-22T11:08:41;97520.65;;;22.16;53.79
43480;BME280;29067;35.492;-97.520;2023-07-22T11:11:09;97523.20;;;22.09;53.91
43480;BME280;29067;35.492;-97.520;2023-07-22T11:13:39;97534.22;;;21.89;54.10
43480;BME280;29067;35.492;-97.520;2023-07-22T11:16:11;97532.63;;;22.08;55.23
43480;BME280;29067;35.492;-97.520;2023-07-22T11:18:40;97529.17;;;21.63;54.91
43480;BME280;29067;35.492;-97.520;2023-07-22T11:21:09;97530.29;;;21.17;55.69
43480;BME280;29067;35.492;-97.520;2023-07-22T11:23:38;97531.30;;;22.83;54.46
43480;BME280;29067;35.492;-97.520;2023-07-22T11:26:05;97537.17;;;21.00;56.56
43480;BME280;29067;35.492;-97.520;2023-07-22T11:28:33;97533.98;;;20.74;56.70
43480;BME280;29067;35.492;-97.520;2023-07-22T11:31:01;97530.74;;;22.02;56.05
43480;BME280;29067;35.492;-97.520;2023-07-22T11:33:38;97529.79;;;21.67;55.36
43480;BME280;29067;35.492;-97.520;2023-07-22T11:36:06;97545.03;;;21.61;56.70
43480;BME280;29067;35.492;-97.520;2023-07-22T11:38:34;97546.79;;;21.35;55.60
43480;BME280;29067;35.492;-97.520;2023-07-22T11:41:02;97546.75;;;22.65;55.01
43480;BME280;29067;35.492;-97.520;2023-07-22T11:43:30;97548.21;;;22.88;55.18
43480;BME280;29067;35.492;-97.520;2023-07-22T11:45:59;97546.83;;;22.32;54.60
43480;BME280;29067;35.492;-97.520;2023-07-22T11:48:26;97549.30;;;20.55;57.12
43480;BME280;29067;35.492;-97.520;2023-07-22T11:50:59;97546.23;;;21.51;56.40
43480;BME280;29067;35.492;-97.520;2023-07-22T11:53:28;97551.73;;;20.66;57.11
43480;BME280;29067;35.492;-97.520;2023-07-22T11:55:57;97552.27;;;21.36;57.76
43480;BME280;29067;35.492;-97.520;2023-07-22T11:58:25;97548.30;;;21.36;56.47
43480;BME280;29067;35.492;-97.520;2023-07-22T12:01:03;97548.58;;;21.74;55.51
43480;BME280;29067;35.492;-97.520;2023-07-22T12:03:32;97555.04;;;22.76;54.65
43480;BME280;29067;35.492;-97.520;2023-07-22T12:06:01;97558.99;;;21.87;55.18
43480;BME280;29067;35.492;-97.520;2023-07-22T12:08:29;97556.98;;;21.74;55.50
43480;BME280;29067;35.492;-97.520;2023-07-22T12:10:58;97556.86;;;21.59;55.70
43480;BME280;29067;35.492;-97.520;2023-07-22T12:13:27;97557.53;;;22.20;55.85
43480;BME280;29067;35.492;-97.520;2023-07-22T12:16:03;97556.07;;;23.13;55.31
43480;BME280;29067;35.492;-97.520;2023-07-22T12:18:42;97550.85;;;21.85;55.72
43480;BME280;29067;35.492;-97.520;2023-07-22T12:21:10;97540.66;;;22.38;55.12
43480;BME280;29067;35.492;-97.520;2023-07-22T12:23:38;97541.16;;;22.82;54.27
43480;BME280;29067;35.492;-97.520;2023-07-22T12:26:06;97540.68;;;22.87;54.00
43480;BME280;29067;35.492;-97.520;2023-07-22T12:28:34;97536.96;;;23.71;53.45
43480;BME280;29067;35.492;-97.520;2023-07-22T12:31:02;97537.59;;;23.75;52.53
43480;BME280;29067;35.492;-97.520;2023-07-22T12:33:30;97535.50;;;23.72;52.68
43480;BME280;29067;35.492;-97.520;2023-07-22T12:35:58;97535.89;;;22.67;54.30
43480;BME280;29067;35.492;-97.520;2023-07-22T12:38:26;97538.61;;;23.91;52.73
43480;BME280;29067;35.492;-97.520;2023-07-22T12:40:54;97540.31;;;23.43;52.99
43480;BME280;29067;35.492;-97.520;2023-07-22T12:43:22;97540.16;;;23.72;52.17
43480;BME280;29067;35.492;-97.520;2023-07-22T12:45:49;97540.00;;;23.44;52.35
43480;BME280;29067;35.492;-97.520;2023-07-22T12:48:17;97540.57;;;23.37;51.93
43480;BME280;29067;35.492;-97.520;2023-07-22T12:50:46;97541.75;;;23.92;51.78